ESSP/NRK METAR and TAF weather

Enter ICAO airport designator
Station Type Date Time Source
ESSP METAR 2019/08/24 19:50 UTC NOAA

ESSP 241950Z AUTO 11002KT 9999 NCD 13/12 Q1026


Station Type Date Time Source
ESSP Decoded METAR 2019/08/24 19:50 UTC NOAA

Station name not available
Aug 24, 2019 - 03:50 PM EDT / 2019.08.24 1950 UTC
Wind: from the ESE (110 degrees) at 2 MPH (2 KT):0
Visibility: greater than 7 mile(s):0
Temperature: 55 F (13 C)
Dew Point: 53 F (12 C)
Relative Humidity: 93%
Pressure (altimeter): 30.30 in. Hg (1026 hPa)
ob: ESSP 241950Z AUTO 11002KT 9999 NCD 13/12 Q1026
cycle: 20

Station Type Date Time Source
ESSP TAF 2018/01/01 02:31 UTC NOAA

TAF ESSP 010130Z 0102/0206 16002KT 9999 BKN004 PROB40 0102/0106 4000 BR SCT004

Example: see airport list